createdAt,value
2023-04-06T05:02:57.129Z,26.42
2023-04-06T05:05:27.286Z,24.23
2023-04-06T05:08:03.992Z,26.25
2023-04-06T05:10:34.433Z,25.77
2023-04-06T05:13:11.099Z,27.67
2023-04-06T05:15:41.859Z,25.60
2023-04-06T05:18:22.057Z,25.92
2023-04-06T05:20:52.862Z,27.70
2023-04-06T05:23:29.086Z,25.92
2023-04-06T05:25:59.274Z,24.40
2023-04-06T05:28:36.070Z,27.85
2023-04-06T05:31:08.414Z,25.77
2023-04-06T05:33:48.047Z,27.13
2023-04-06T05:36:18.210Z,29.00
2023-04-06T05:38:55.092Z,26.13
2023-04-06T05:41:25.211Z,24.25
2023-04-06T05:44:03.032Z,27.58
2023-04-06T05:46:33.378Z,25.85
2023-04-06T05:49:13.112Z,27.48
2023-04-06T05:51:50.145Z,25.33
2023-04-06T05:54:27.124Z,26.65
2023-04-06T05:56:57.348Z,34.03
2023-04-06T05:59:34.168Z,26.58
2023-04-06T06:02:05.550Z,28.08
2023-04-06T06:04:45.125Z,25.98
2023-04-06T06:07:15.525Z,25.45
2023-04-06T06:09:52.111Z,26.08
2023-04-06T06:12:22.193Z,26.55
2023-04-06T06:14:59.085Z,26.48
2023-04-06T06:17:38.491Z,32.55
2023-04-06T06:20:13.413Z,28.58
2023-04-06T06:22:50.104Z,27.48
2023-04-06T06:25:20.437Z,28.67
2023-04-06T06:27:59.111Z,25.33
2023-04-06T06:30:30.259Z,26.83
2023-04-06T06:33:07.157Z,27.63
2023-04-06T06:35:46.176Z,27.17
2023-04-06T06:38:23.998Z,31.98
2023-04-06T06:41:01.148Z,28.77
2023-04-06T06:43:31.438Z,26.75
2023-04-06T06:46:08.237Z,25.27
2023-04-06T06:48:38.556Z,27.80
2023-04-06T06:51:19.179Z,27.67
2023-04-06T06:53:49.368Z,28.98
2023-04-06T06:56:26.162Z,28.17
2023-04-06T06:58:56.278Z,30.10
2023-04-06T07:01:33.254Z,27.80
2023-04-06T07:04:10.275Z,28.45
2023-04-06T07:06:43.184Z,29.20
2023-04-06T07:09:20.205Z,29.60
2023-04-06T07:11:50.327Z,27.25
2023-04-06T07:14:27.214Z,28.10
2023-04-06T07:16:57.344Z,28.73
2023-04-06T07:19:34.230Z,29.15
2023-04-06T07:22:07.205Z,31.52
2023-04-06T07:24:44.177Z,30.65
2023-04-06T07:27:21.231Z,30.63
2023-04-06T07:29:51.399Z,27.52
2023-04-06T07:32:28.256Z,29.30
2023-04-06T07:34:59.372Z,27.65
2023-04-06T07:37:38.228Z,32.17
2023-04-06T07:40:17.382Z,27.35
2023-04-06T07:42:47.520Z,29.20
2023-04-06T07:45:25.247Z,31.98
2023-04-06T07:47:55.483Z,28.65
2023-04-06T07:50:32.242Z,31.30
2023-04-06T07:53:04.890Z,35.08
2023-04-06T07:55:41.206Z,31.10
2023-04-06T07:58:19.260Z,34.03
2023-04-06T08:00:49.317Z,32.45
2023-04-06T08:03:28.545Z,33.85
2023-04-06T08:06:05.244Z,32.45
2023-04-06T08:08:37.908Z,31.40
2023-04-06T08:11:14.282Z,34.65
2023-04-06T08:13:44.380Z,32.78
2023-04-06T08:16:21.288Z,32.55
2023-04-06T08:18:51.606Z,32.63
2023-04-06T08:21:29.317Z,31.23
2023-04-06T08:24:02.170Z,37.67
2023-04-06T08:26:39.282Z,31.33
2023-04-06T08:29:10.303Z,31.05
2023-04-06T08:31:48.321Z,34.03
2023-04-06T08:34:18.554Z,32.88
2023-04-06T08:36:56.305Z,32.55
2023-04-06T08:39:29.350Z,34.67
2023-04-06T08:42:07.317Z,34.83
2023-04-06T08:44:39.058Z,30.65
2023-04-06T08:47:16.314Z,33.15
2023-04-06T08:49:47.929Z,33.17
2023-04-06T08:52:28.328Z,33.78
2023-04-06T08:55:07.301Z,30.75
2023-04-06T08:57:39.827Z,33.20
2023-04-06T09:00:20.525Z,38.30
2023-04-06T09:02:59.398Z,31.65
2023-04-06T09:05:36.639Z,34.53
2023-04-06T09:08:07.240Z,35.70
2023-04-06T09:10:46.363Z,35.40
2023-04-06T09:13:23.378Z,36.10
2023-04-06T09:16:03.874Z,36.80
2023-04-06T09:18:41.312Z,39.10
2023-04-06T09:21:19.343Z,41.85
2023-04-06T09:23:49.800Z,40.72
2023-04-06T09:26:29.345Z,42.33
2023-04-06T09:29:02.508Z,47.83
2023-04-06T09:31:41.449Z,47.72
2023-04-06T09:34:11.591Z,48.47
2023-04-06T09:36:49.580Z,44.33
2023-04-06T09:39:24.022Z,37.65
2023-04-06T09:42:04.418Z,40.28
2023-04-06T09:44:41.414Z,45.13
2023-04-06T09:47:18.466Z,39.72
2023-04-06T09:49:56.414Z,41.83
2023-04-06T09:52:30.170Z,40.75
2023-04-06T09:55:12.342Z,40.95
2023-04-06T09:58:01.873Z,40.25
2023-04-06T10:00:41.397Z,39.80
2023-04-06T10:03:38.798Z,39.67
2023-04-06T10:06:21.382Z,39.72
2023-04-06T10:08:55.823Z,36.97
2023-04-06T10:11:33.425Z,32.92
2023-04-06T10:14:06.608Z,31.52
2023-04-06T10:16:44.519Z,27.65
2023-04-06T10:19:27.416Z,34.33
2023-04-06T10:22:01.592Z,34.03
2023-04-06T10:24:38.430Z,29.48
2023-04-06T10:27:12.301Z,23.17
2023-04-06T10:29:58.455Z,26.13
2023-04-06T10:32:37.735Z,25.67
2023-04-06T10:35:20.458Z,22.50
2023-04-06T10:37:55.899Z,24.08
2023-04-06T10:40:36.456Z,20.30
2023-04-06T10:43:20.519Z,22.38
2023-04-06T10:46:00.391Z,20.40
2023-04-06T10:48:48.485Z,18.45
2023-04-06T10:51:21.544Z,15.38
2023-04-06T10:53:59.417Z,20.08
2023-04-06T10:56:36.678Z,18.13
2023-04-06T10:59:07.322Z,18.02
2023-04-06T11:01:46.563Z,18.23
2023-04-06T11:04:27.518Z,18.75
2023-04-06T11:06:59.030Z,15.18
2023-04-06T11:09:36.548Z,16.73
2023-04-06T11:12:07.485Z,14.60
2023-04-06T11:14:44.472Z,17.05
2023-04-06T11:17:18.359Z,17.45
2023-04-06T11:19:55.515Z,13.05
2023-04-06T11:22:25.879Z,15.90
2023-04-06T11:25:03.462Z,15.75
2023-04-06T11:27:40.516Z,14.15
2023-04-06T11:30:19.569Z,15.00
2023-04-06T11:32:59.620Z,14.02
2023-04-06T11:35:39.057Z,14.25
2023-04-06T11:38:10.519Z,14.80
2023-04-06T11:40:47.525Z,17.20
2023-04-06T11:43:17.750Z,15.00
2023-04-06T11:45:56.856Z,15.52
2023-04-06T11:48:29.596Z,16.75
2023-04-06T11:51:08.564Z,18.00
2023-04-06T11:53:48.806Z,16.25
2023-04-06T11:56:37.603Z,17.60
2023-04-06T11:59:07.975Z,14.57
2023-04-06T12:01:44.583Z,16.95
2023-04-06T12:04:19.003Z,17.55
2023-04-06T12:06:55.540Z,15.50
2023-04-06T12:09:25.871Z,17.58
2023-04-06T12:12:03.565Z,17.90
2023-04-06T12:14:40.538Z,18.48
2023-04-06T12:17:10.719Z,16.73
2023-04-06T12:19:50.621Z,19.40
2023-04-06T12:22:23.195Z,19.85
2023-04-06T12:24:59.712Z,19.02
2023-04-06T12:27:29.942Z,19.48
2023-04-06T12:30:06.900Z,20.90
2023-04-06T12:32:43.732Z,22.48
2023-04-06T12:35:17.024Z,20.20
2023-04-06T12:37:54.603Z,21.23
2023-04-06T12:40:25.167Z,21.60
2023-04-06T12:43:02.577Z,22.88
2023-04-06T12:45:40.648Z,22.25
2023-04-06T12:48:11.592Z,21.33
2023-04-06T12:50:50.634Z,25.48
2023-04-06T12:53:20.920Z,22.88
2023-04-06T12:55:57.658Z,20.92
2023-04-06T12:58:35.604Z,19.58
2023-04-06T13:01:11.915Z,20.67
